createdAt,value
2023-02-11T00:01:00.810Z,103051.81
2023-02-11T00:03:27.431Z,103049.94
2023-02-11T00:06:01.169Z,103056.34
2023-02-11T00:08:28.121Z,103051.94
2023-02-11T00:10:56.135Z,103049.13
2023-02-11T00:13:23.107Z,103055.25
2023-02-11T00:15:49.979Z,103064.31
2023-02-11T00:18:16.705Z,103048.09
2023-02-11T00:20:43.626Z,103051.94
2023-02-11T00:23:10.243Z,103041.84
2023-02-11T00:25:41.571Z,103038.44
2023-02-11T00:28:08.962Z,103037.31
2023-02-11T00:30:35.754Z,103031.09
2023-02-11T00:33:02.413Z,103029.50
2023-02-11T00:35:29.623Z,103034.63
2023-02-11T00:37:56.470Z,103046.59
2023-02-11T00:40:23.320Z,103060.59
2023-02-11T00:42:49.870Z,103069.41
2023-02-11T00:45:16.437Z,103063.09
2023-02-11T00:47:43.061Z,103051.50
2023-02-11T00:50:09.667Z,103052.47
2023-02-11T00:52:36.279Z,103056.06
2023-02-11T00:55:02.828Z,103041.97
2023-02-11T00:57:29.460Z,103048.00
2023-02-11T00:59:56.121Z,103032.13
2023-02-11T01:02:22.695Z,103042.78
2023-02-11T01:04:49.265Z,103026.38
2023-02-11T01:07:16.046Z,103025.56
2023-02-11T01:09:42.747Z,103022.84
2023-02-11T01:12:09.314Z,103026.31
2023-02-11T01:14:35.884Z,103044.06
2023-02-11T01:17:04.289Z,103051.38
2023-02-11T01:19:30.892Z,103059.38
2023-02-11T01:21:57.476Z,103063.19
2023-02-11T01:24:24.104Z,103062.13
2023-02-11T01:26:50.688Z,103065.84
2023-02-11T01:29:17.255Z,103058.56
2023-02-11T01:31:43.821Z,103061.28
2023-02-11T01:34:10.403Z,103062.91
2023-02-11T01:36:37.035Z,103060.16
2023-02-11T01:39:03.702Z,103055.06
2023-02-11T01:41:30.407Z,103055.75
2023-02-11T01:43:56.987Z,103055.59
2023-02-11T01:46:25.074Z,103047.72
2023-02-11T01:49:03.473Z,103033.81
2023-02-11T01:51:44.417Z,103026.38
2023-02-11T01:54:32.917Z,103028.09
2023-02-11T01:57:18.671Z,103029.78
2023-02-11T02:00:21.588Z,103026.47
2023-02-11T02:02:55.069Z,103028.97
2023-02-11T02:05:27.526Z,103027.03
2023-02-11T02:07:59.899Z,103023.59
2023-02-11T02:10:27.803Z,103023.47
2023-02-11T02:12:54.514Z,103022.75
2023-02-11T02:15:27.492Z,103020.13
2023-02-11T02:18:06.794Z,103012.16
2023-02-11T02:21:11.653Z,103019.22
2023-02-11T02:24:02.967Z,103005.94
2023-02-11T02:27:06.192Z,102996.09
2023-02-11T02:29:56.757Z,102985.44
2023-02-11T02:33:05.813Z,102993.47
2023-02-11T02:35:55.926Z,102995.13
2023-02-11T02:38:27.869Z,102994.16
2023-02-11T02:41:02.552Z,102981.81
2023-02-11T02:43:29.772Z,102980.25
2023-02-11T02:45:56.756Z,102979.97
2023-02-11T02:48:25.499Z,102984.50
2023-02-11T02:50:58.586Z,102981.25
2023-02-11T02:54:04.263Z,102985.50
2023-02-11T02:56:46.369Z,102985.63
2023-02-11T02:59:24.889Z,102987.44
2023-02-11T03:02:46.174Z,102966.84
2023-02-11T03:05:22.080Z,102975.63
2023-02-11T03:07:57.296Z,102974.16
2023-02-11T03:10:26.660Z,102973.34
2023-02-11T03:12:54.500Z,102974.19
2023-02-11T03:15:23.421Z,102973.25
2023-02-11T03:17:52.040Z,102969.81
2023-02-11T03:20:20.361Z,102975.97
2023-02-11T03:22:51.050Z,102970.69
2023-02-11T03:25:17.746Z,102966.31
2023-02-11T03:27:54.006Z,102961.75
2023-02-11T03:30:30.570Z,102952.00
2023-02-11T03:33:01.397Z,102956.34
2023-02-11T03:35:37.069Z,102961.88
2023-02-11T03:38:16.263Z,102964.41
2023-02-11T03:40:45.540Z,102968.13
2023-02-11T03:43:21.179Z,102957.34
2023-02-11T03:45:48.800Z,102960.88
2023-02-11T03:48:20.425Z,102956.34
2023-02-11T03:50:48.820Z,102952.88
2023-02-11T03:53:16.128Z,102956.19
2023-02-11T03:55:43.548Z,102955.69
2023-02-11T03:58:10.295Z,102955.47
2023-02-11T04:00:39.814Z,102967.13
2023-02-11T04:03:07.506Z,102969.69
2023-02-11T04:05:34.118Z,102969.53
2023-02-11T04:08:00.770Z,102967.97
2023-02-11T04:10:27.330Z,102973.97
2023-02-11T04:12:53.915Z,102966.00
2023-02-11T04:15:20.495Z,102966.16
2023-02-11T04:17:47.054Z,102966.16
2023-02-11T04:20:13.683Z,102963.69
2023-02-11T04:22:40.287Z,102968.75
2023-02-11T04:25:07.466Z,102968.78
2023-02-11T04:27:34.030Z,102966.31
2023-02-11T04:30:00.650Z,102967.00
2023-02-11T04:32:27.213Z,102968.00
2023-02-11T04:34:54.914Z,102968.94
2023-02-11T04:37:21.488Z,102969.63
2023-02-11T04:39:48.061Z,102964.25
2023-02-11T04:42:14.786Z,102964.41
2023-02-11T04:44:41.366Z,102966.13
2023-02-11T04:47:07.984Z,102954.69
2023-02-11T04:49:34.615Z,102962.53
2023-02-11T04:52:01.195Z,102966.00
2023-02-11T04:54:27.783Z,102965.28
2023-02-11T04:56:54.377Z,102975.81
2023-02-11T04:59:20.939Z,102967.81
2023-02-11T05:01:47.514Z,102967.09
2023-02-11T05:04:14.154Z,102967.94
2023-02-11T05:06:40.726Z,102976.66
2023-02-11T05:09:07.405Z,102973.19
2023-02-11T05:11:33.971Z,102980.25
2023-02-11T05:14:00.568Z,102978.41
2023-02-11T05:16:27.156Z,102982.00
2023-02-11T05:18:55.715Z,102977.47
2023-02-11T05:21:22.554Z,102974.84
2023-02-11T05:23:49.126Z,102969.53
2023-02-11T05:26:15.725Z,102973.25
2023-02-11T05:28:42.446Z,102974.84
2023-02-11T05:31:09.177Z,102967.00
2023-02-11T05:33:35.826Z,102975.06
2023-02-11T05:36:05.344Z,102974.84
2023-02-11T05:38:32.080Z,102977.44
2023-02-11T05:40:58.688Z,102978.47
2023-02-11T05:43:25.287Z,102979.44
2023-02-11T05:45:52.245Z,102977.66
2023-02-11T05:48:19.097Z,102980.50
2023-02-11T05:50:45.849Z,102983.16
2023-02-11T05:53:12.463Z,102979.41
2023-02-11T05:55:39.292Z,102980.28
2023-02-11T05:58:06.341Z,102984.00
2023-02-11T06:00:32.898Z,102980.28
2023-02-11T06:02:59.577Z,102988.19
2023-02-11T06:05:26.249Z,102983.81
2023-02-11T06:07:52.949Z,102978.47
2023-02-11T06:10:19.566Z,102988.06
2023-02-11T06:12:46.169Z,102975.66
2023-02-11T06:15:12.770Z,102979.13
2023-02-11T06:17:39.350Z,102973.84
2023-02-11T06:20:08.408Z,102969.63
2023-02-11T06:22:35.248Z,102971.44
2023-02-11T06:25:02.439Z,102973.81
2023-02-11T06:27:29.574Z,102974.78
2023-02-11T06:29:56.272Z,102976.59
2023-02-11T06:32:42.614Z,102986.31
2023-02-11T06:35:11.759Z,102971.53
2023-02-11T06:37:38.762Z,102978.28
2023-02-11T06:40:05.762Z,102974.84
2023-02-11T06:42:32.423Z,102983.78
2023-02-11T06:44:58.981Z,102990.66
2023-02-11T06:47:25.577Z,102995.03
2023-02-11T06:49:52.148Z,102992.38
2023-02-11T06:52:18.709Z,102995.09
2023-02-11T06:54:45.285Z,102992.59
2023-02-11T06:57:11.836Z,102988.84
2023-02-11T06:59:38.494Z,102981.81
2023-02-11T07:02:05.143Z,102982.50
2023-02-11T07:04:31.826Z,102984.88
2023-02-11T07:06:58.381Z,102987.91
2023-02-11T07:09:24.952Z,102984.00
2023-02-11T07:11:51.563Z,102997.91
2023-02-11T07:14:18.143Z,103004.88
2023-02-11T07:16:44.731Z,103012.91
2023-02-11T07:19:11.274Z,103011.81
2023-02-11T07:21:37.832Z,103009.16
2023-02-11T07:24:10.912Z,103006.81
2023-02-11T07:26:37.785Z,103000.72
2023-02-11T07:29:04.379Z,103001.13
2023-02-11T07:31:31.605Z,102999.41
2023-02-11T07:34:00.291Z,103008.44
2023-02-11T07:36:28.230Z,103003.16
2023-02-11T07:38:54.807Z,103001.34
2023-02-11T07:41:23.030Z,103009.34
2023-02-11T07:43:49.884Z,103008.31
2023-02-11T07:46:19.845Z,103018.88
2023-02-11T07:48:46.701Z,103013.47
2023-02-11T07:51:19.141Z,103010.56
2023-02-11T07:53:46.264Z,103005.09
2023-02-11T07:56:14.823Z,103016.47
2023-02-11T07:58:44.677Z,103028.88
2023-02-11T08:01:14.328Z,103025.38
2023-02-11T08:03:42.861Z,103028.78
2023-02-11T08:06:14.592Z,103030.59
2023-02-11T08:08:41.576Z,103037.63
2023-02-11T08:11:09.182Z,103032.16
2023-02-11T08:13:36.191Z,103041.03
2023-02-11T08:16:03.795Z,103045.28
2023-02-11T08:18:31.347Z,103047.06
2023-02-11T08:21:04.444Z,103045.91
2023-02-11T08:23:31.020Z,103057.44
2023-02-11T08:26:02.286Z,103061.97
2023-02-11T08:28:28.874Z,103078.72
2023-02-11T08:30:55.525Z,103084.16
2023-02-11T08:33:22.171Z,103089.41
2023-02-11T08:35:48.767Z,103082.94
2023-02-11T08:38:15.341Z,103073.03
2023-02-11T08:40:41.910Z,103074.06
2023-02-11T08:43:08.458Z,103078.41
2023-02-11T08:45:35.107Z,103075.69
2023-02-11T08:48:01.707Z,103080.31
2023-02-11T08:50:28.446Z,103084.31
2023-02-11T08:52:55.049Z,103091.47
2023-02-11T08:55:21.620Z,103102.44
2023-02-11T08:57:48.179Z,103100.28
2023-02-11T09:00:15.569Z,103100.53
2023-02-11T09:02:42.197Z,103098.72
2023-02-11T09:05:08.891Z,103111.25
2023-02-11T09:07:35.433Z,103106.78
2023-02-11T09:10:02.064Z,103112.84
2023-02-11T09:12:28.617Z,103120.00
2023-02-11T09:14:55.193Z,103116.59
2023-02-11T09:17:21.739Z,103112.94
2023-02-11T09:19:48.308Z,103123.53
2023-02-11T09:22:14.846Z,103123.53
2023-02-11T09:24:41.443Z,103124.41
2023-02-11T09:27:08.004Z,103133.34
2023-02-11T09:29:34.595Z,103130.69
2023-02-11T09:32:01.265Z,103145.78
2023-02-11T09:34:27.967Z,103143.09
2023-02-11T09:36:54.614Z,103138.56
2023-02-11T09:39:21.169Z,103144.75
2023-02-11T09:42:05.733Z,103150.91
2023-02-11T09:44:34.436Z,103137.69
2023-02-11T09:47:03.939Z,103140.75
2023-02-11T09:49:40.407Z,103146.50
2023-02-11T09:52:13.030Z,103151.56
2023-02-11T09:54:54.796Z,103169.22
2023-02-11T09:57:28.660Z,103162.63
2023-02-11T09:59:56.869Z,103175.91
2023-02-11T10:02:26.446Z,103172.56
2023-02-11T10:05:18.103Z,103169.16
2023-02-11T10:07:59.565Z,103181.69
2023-02-11T10:10:38.014Z,103192.78
2023-02-11T10:13:30.335Z,103193.75
2023-02-11T10:16:02.799Z,103193.75
2023-02-11T10:18:50.471Z,103197.38
2023-02-11T10:21:31.870Z,103207.34
2023-02-11T10:24:02.044Z,103194.94
2023-02-11T10:26:30.984Z,103195.78
2023-02-11T10:29:01.566Z,103200.34
2023-02-11T10:31:38.544Z,103195.28
2023-02-11T10:34:07.506Z,103204.09
2023-02-11T10:36:36.967Z,103215.13
2023-02-11T10:39:13.270Z,103220.69
2023-02-11T10:41:54.109Z,103229.56
2023-02-11T10:44:27.874Z,103222.28
2023-02-11T10:46:54.710Z,103223.19
2023-02-11T10:49:39.225Z,103243.88
2023-02-11T10:52:18.299Z,103240.69
2023-02-11T10:55:09.421Z,103243.03
2023-02-11T10:57:45.601Z,103239.34
2023-02-11T11:00:18.271Z,103245.69
2023-02-11T11:02:47.431Z,103246.50
2023-02-11T11:05:20.062Z,103237.63
2023-02-11T11:07:55.281Z,103240.25
2023-02-11T11:10:36.937Z,103236.72
2023-02-11T11:13:03.722Z,103233.25
2023-02-11T11:15:31.744Z,103240.53
2023-02-11T11:18:22.873Z,103250.47
2023-02-11T11:21:19.247Z,103245.19
2023-02-11T11:23:51.743Z,103244.66
2023-02-11T11:26:18.737Z,103239.63
2023-02-11T11:29:03.460Z,103243.13
2023-02-11T11:31:48.196Z,103249.47
2023-02-11T11:34:25.662Z,103249.03
2023-02-11T11:36:52.347Z,103250.72
2023-02-11T11:39:27.014Z,103250.81
2023-02-11T11:42:05.558Z,103254.41
2023-02-11T11:44:33.828Z,103249.84
2023-02-11T11:47:12.606Z,103265.78
2023-02-11T11:49:51.351Z,103260.34
2023-02-11T11:52:34.992Z,103261.16
2023-02-11T11:55:23.084Z,103268.13
2023-02-11T11:57:49.998Z,103276.06
2023-02-11T12:00:36.333Z,103255.59
2023-02-11T12:03:28.016Z,103268.16
2023-02-11T12:06:06.772Z,103264.06
2023-02-11T12:08:55.023Z,103269.03
2023-02-11T12:11:40.916Z,103246.03
2023-02-11T12:14:20.640Z,103251.91
2023-02-11T12:17:05.316Z,103250.81
2023-02-11T12:19:35.574Z,103259.94
2023-02-11T12:22:18.970Z,103261.28
2023-02-11T12:25:12.755Z,103261.28
2023-02-11T12:27:42.474Z,103248.09
2023-02-11T12:30:50.341Z,103257.94
2023-02-11T12:33:50.145Z,103267.50
2023-02-11T12:36:40.662Z,103257.63
2023-02-11T12:39:42.339Z,103256.81
2023-02-11T12:42:39.358Z,103251.47
2023-02-11T12:45:11.770Z,103246.88
2023-02-11T12:47:42.420Z,103253.28
2023-02-11T12:50:30.518Z,103259.44
2023-02-11T12:53:22.474Z,103258.91
2023-02-11T12:55:53.731Z,103269.44
2023-02-11T12:58:29.626Z,103271.94
2023-02-11T13:01:15.950Z,103276.38
2023-02-11T13:03:47.563Z,103274.59
2023-02-11T13:06:18.482Z,103272.53
2023-02-11T13:08:48.129Z,103275.22
2023-02-11T13:11:19.025Z,103270.72
2023-02-11T13:13:45.521Z,103274.41
2023-02-11T13:16:39.322Z,103283.34
2023-02-11T13:19:20.939Z,103277.88
2023-02-11T13:22:12.172Z,103271.81
2023-02-11T13:24:41.455Z,103272.84
2023-02-11T13:27:10.912Z,103274.50
2023-02-11T13:30:29.347Z,103262.16
2023-02-11T13:32:55.985Z,103257.63
2023-02-11T13:35:38.411Z,103260.34
2023-02-11T13:38:13.197Z,103265.91
2023-02-11T13:40:40.252Z,103271.13
2023-02-11T13:43:20.838Z,103272.97
2023-02-11T13:45:48.551Z,103281.00
2023-02-11T13:48:24.001Z,103284.63
2023-02-11T13:50:56.613Z,103292.69
2023-02-11T13:53:23.609Z,103298.69
2023-02-11T13:55:52.482Z,103303.19
2023-02-11T13:58:37.180Z,103293.25
2023-02-11T14:01:03.784Z,103297.09
2023-02-11T14:03:57.139Z,103298.78
2023-02-11T14:06:44.625Z,103296.16
2023-02-11T14:09:13.941Z,103293.53
2023-02-11T14:11:40.852Z,103281.72
2023-02-11T14:14:29.980Z,103283.66
2023-02-11T14:17:02.540Z,103289.84
2023-02-11T14:19:37.806Z,103289.00
2023-02-11T14:22:06.369Z,103296.06
2023-02-11T14:24:32.873Z,103299.59
2023-02-11T14:27:03.907Z,103294.94
2023-02-11T14:30:03.004Z,103297.59
2023-02-11T14:32:38.349Z,103293.91
2023-02-11T14:35:04.886Z,103293.03
2023-02-11T14:38:08.505Z,103297.72
2023-02-11T14:41:02.080Z,103291.38
2023-02-11T14:43:34.892Z,103297.53
2023-02-11T14:46:01.630Z,103297.22
2023-02-11T14:48:31.128Z,103311.75
2023-02-11T14:51:06.555Z,103315.25
2023-02-11T14:53:33.888Z,103316.19
2023-02-11T14:56:00.527Z,103324.81
2023-02-11T14:58:30.643Z,103321.19
2023-02-11T15:01:02.614Z,103322.50
2023-02-11T15:03:33.266Z,103321.94
2023-02-11T15:06:18.765Z,103325.47
2023-02-11T15:08:49.196Z,103326.63
2023-02-11T15:11:18.194Z,103331.97
2023-02-11T15:13:49.631Z,103339.16
2023-02-11T15:16:22.366Z,103339.03
2023-02-11T15:18:51.880Z,103343.44
2023-02-11T15:21:23.988Z,103347.03
2023-02-11T15:24:46.711Z,103353.06
2023-02-11T15:27:15.756Z,103345.25
2023-02-11T15:29:51.146Z,103342.44
2023-02-11T15:32:23.233Z,103346.31
2023-02-11T15:34:51.893Z,103345.34
2023-02-11T15:37:29.750Z,103336.50
2023-02-11T15:40:11.698Z,103332.13
2023-02-11T15:42:52.107Z,103331.25
2023-02-11T15:45:34.024Z,103339.03
2023-02-11T15:48:19.398Z,103344.56
2023-02-11T15:51:01.929Z,103344.25
2023-02-11T15:53:43.434Z,103338.19
2023-02-11T15:56:24.149Z,103333.81
2023-02-11T15:58:52.200Z,103339.03
2023-02-11T16:01:18.835Z,103344.56
2023-02-11T16:03:50.323Z,103345.53
2023-02-11T16:06:21.347Z,103347.72
2023-02-11T16:09:12.903Z,103352.22
2023-02-11T16:11:48.242Z,103352.22
2023-02-11T16:14:23.584Z,103347.19
2023-02-11T16:16:51.975Z,103351.69
2023-02-11T16:19:20.840Z,103350.09
2023-02-11T16:21:49.082Z,103358.84
2023-02-11T16:24:41.747Z,103354.44
2023-02-11T16:27:30.359Z,103362.91
2023-02-11T16:29:57.846Z,103362.91
2023-02-11T16:32:26.503Z,103362.00
2023-02-11T16:34:57.867Z,103359.72
2023-02-11T16:37:25.251Z,103358.63
2023-02-11T16:39:55.910Z,103359.38
2023-02-11T16:42:23.309Z,103372.84
2023-02-11T16:44:49.871Z,103386.28
2023-02-11T16:47:24.310Z,103382.59
2023-02-11T16:49:51.150Z,103391.25
2023-02-11T16:52:18.553Z,103393.09
2023-02-11T16:54:45.127Z,103407.31
2023-02-11T16:57:15.708Z,103415.50
2023-02-11T16:59:42.776Z,103414.34
2023-02-11T17:02:30.618Z,103421.63
2023-02-11T17:05:11.835Z,103410.84
2023-02-11T17:07:38.408Z,103418.09
2023-02-11T17:10:13.753Z,103416.19
2023-02-11T17:12:40.354Z,103418.19
2023-02-11T17:15:07.697Z,103429.22
2023-02-11T17:17:34.297Z,103423.47
2023-02-11T17:20:00.855Z,103424.88
2023-02-11T17:22:27.443Z,103425.88
2023-02-11T17:24:55.880Z,103429.28
2023-02-11T17:27:22.796Z,103432.75
2023-02-11T17:29:49.467Z,103438.91
2023-02-11T17:32:16.090Z,103440.88
2023-02-11T17:34:42.719Z,103449.78
2023-02-11T17:37:10.354Z,103447.94
2023-02-11T17:39:38.335Z,103454.81
2023-02-11T17:42:06.081Z,103459.41
2023-02-11T17:44:33.346Z,103452.50
2023-02-11T17:46:59.906Z,103458.66
2023-02-11T17:49:27.523Z,103463.31
2023-02-11T17:51:54.132Z,103462.91
2023-02-11T17:54:20.814Z,103459.63
2023-02-11T17:56:50.521Z,103460.22
2023-02-11T17:59:17.396Z,103469.94
2023-02-11T18:01:44.190Z,103475.19
2023-02-11T18:04:14.673Z,103476.97
2023-02-11T18:06:41.347Z,103482.69
2023-02-11T18:09:07.907Z,103480.53
2023-02-11T18:11:37.280Z,103481.84
2023-02-11T18:14:04.765Z,103484.06
2023-02-11T18:16:31.431Z,103492.03
2023-02-11T18:18:58.644Z,103506.31
2023-02-11T18:21:25.703Z,103501.41
2023-02-11T18:23:52.328Z,103515.63
2023-02-11T18:26:20.180Z,103518.34
2023-02-11T18:28:47.230Z,103525.03
2023-02-11T18:31:14.631Z,103519.78
2023-02-11T18:33:42.000Z,103517.75
2023-02-11T18:36:13.138Z,103528.44
2023-02-11T18:38:40.748Z,103519.03
2023-02-11T18:41:07.840Z,103514.47
2023-02-11T18:43:35.236Z,103508.25
2023-02-11T18:46:03.024Z,103511.56
2023-02-11T18:48:29.708Z,103502.78
2023-02-11T18:50:56.584Z,103501.09
2023-02-11T18:53:25.010Z,103500.97
2023-02-11T18:55:54.019Z,103517.00
2023-02-11T18:58:21.361Z,103510.41
2023-02-11T19:00:48.659Z,103516.78
2023-02-11T19:03:15.381Z,103509.00
2023-02-11T19:05:43.513Z,103510.66
2023-02-11T19:08:10.798Z,103506.19
2023-02-11T19:10:45.510Z,103511.78
2023-02-11T19:13:12.354Z,103509.13
2023-02-11T19:15:45.735Z,103506.44
2023-02-11T19:18:13.874Z,103514.63
2023-02-11T19:20:41.846Z,103518.09
2023-02-11T19:23:08.871Z,103518.84
2023-02-11T19:25:35.695Z,103531.34
2023-02-11T19:28:03.268Z,103525.44
2023-02-11T19:30:29.918Z,103528.19
2023-02-11T19:32:57.680Z,103517.66
2023-02-11T19:35:25.101Z,103524.94
2023-02-11T19:37:51.990Z,103527.69
2023-02-11T19:40:21.164Z,103536.81
2023-02-11T19:42:47.735Z,103534.66
2023-02-11T19:45:14.313Z,103531.25
2023-02-11T19:47:40.931Z,103533.94
2023-02-11T19:50:08.601Z,103530.44
2023-02-11T19:52:40.298Z,103534.88
2023-02-11T19:55:07.662Z,103526.84
2023-02-11T19:57:34.267Z,103532.16
2023-02-11T20:00:01.457Z,103529.44
2023-02-11T20:02:29.232Z,103530.06
2023-02-11T20:04:55.838Z,103536.59
2023-02-11T20:07:22.475Z,103547.38
2023-02-11T20:09:49.069Z,103543.72
2023-02-11T20:12:15.695Z,103545.47
2023-02-11T20:14:42.299Z,103546.34
2023-02-11T20:17:08.913Z,103550.09
2023-02-11T20:19:35.485Z,103559.69
2023-02-11T20:22:02.046Z,103555.06
2023-02-11T20:24:28.624Z,103564.69
2023-02-11T20:26:58.179Z,103567.34
2023-02-11T20:29:25.619Z,103570.25
2023-02-11T20:31:52.380Z,103563.94
2023-02-11T20:34:19.148Z,103567.06
2023-02-11T20:36:51.690Z,103571.84
2023-02-11T20:39:21.706Z,103573.88
2023-02-11T20:41:48.499Z,103591.44
2023-02-11T20:44:15.094Z,103577.41
2023-02-11T20:46:45.943Z,103581.50
2023-02-11T20:49:14.850Z,103587.66
2023-02-11T20:51:41.590Z,103592.53
2023-02-11T20:54:12.497Z,103598.34
2023-02-11T20:56:39.271Z,103598.34
2023-02-11T20:59:06.106Z,103599.19
2023-02-11T21:01:40.626Z,103608.91
2023-02-11T21:04:11.055Z,103609.03
2023-02-11T21:06:40.350Z,103615.44
2023-02-11T21:09:08.406Z,103614.16
2023-02-11T21:11:35.134Z,103616.16
2023-02-11T21:14:02.611Z,103626.75
2023-02-11T21:16:29.474Z,103623.00
2023-02-11T21:18:56.935Z,103610.72
2023-02-11T21:21:24.147Z,103610.53
2023-02-11T21:23:50.760Z,103608.66
2023-02-11T21:26:17.883Z,103610.28
2023-02-11T21:28:44.560Z,103613.78
2023-02-11T21:31:21.542Z,103619.50
2023-02-11T21:33:49.352Z,103622.78
2023-02-11T21:36:16.111Z,103620.09
2023-02-11T21:38:42.696Z,103632.44
2023-02-11T21:41:09.470Z,103636.13
2023-02-11T21:43:36.098Z,103645.03
2023-02-11T21:46:07.236Z,103647.66
2023-02-11T21:48:33.786Z,103644.00
2023-02-11T21:51:05.523Z,103646.69
2023-02-11T21:53:32.119Z,103651.19
2023-02-11T21:56:13.718Z,103647.91
2023-02-11T21:58:40.406Z,103653.75
2023-02-11T22:01:30.536Z,103660.03
2023-02-11T22:03:58.013Z,103661.88
2023-02-11T22:06:27.121Z,103661.88
2023-02-11T22:08:54.446Z,103664.91
2023-02-11T22:11:21.297Z,103675.97
2023-02-11T22:13:48.235Z,103677.56
2023-02-11T22:16:16.854Z,103665.84
2023-02-11T22:18:46.681Z,103673.91
2023-02-11T22:21:18.430Z,103670.25
2023-02-11T22:23:45.382Z,103677.19
2023-02-11T22:26:14.957Z,103675.72
2023-02-11T22:28:41.667Z,103671.00
2023-02-11T22:31:13.449Z,103679.94
2023-02-11T22:33:40.417Z,103681.06
2023-02-11T22:36:10.408Z,103681.91
2023-02-11T22:38:36.967Z,103677.38
2023-02-11T22:41:08.171Z,103678.25
2023-02-11T22:43:34.788Z,103679.09
2023-02-11T22:46:05.900Z,103687.97
2023-02-11T22:48:34.227Z,103691.38
2023-02-11T22:51:08.234Z,103692.41
2023-02-11T22:53:35.193Z,103701.41
2023-02-11T22:56:07.165Z,103690.63
2023-02-11T22:58:34.912Z,103693.25
2023-02-11T23:01:01.709Z,103692.28
2023-02-11T23:03:28.675Z,103691.38
2023-02-11T23:05:57.998Z,103686.09
2023-02-11T23:08:25.192Z,103698.34
2023-02-11T23:10:51.751Z,103695.81
2023-02-11T23:13:18.387Z,103686.03
2023-02-11T23:15:45.930Z,103692.34
2023-02-11T23:18:13.446Z,103692.16
2023-02-11T23:20:42.344Z,103701.94
2023-02-11T23:23:09.012Z,103695.50
2023-02-11T23:25:35.615Z,103702.06
2023-02-11T23:28:02.290Z,103703.88
2023-02-11T23:30:29.126Z,103715.47
2023-02-11T23:32:55.690Z,103713.56
2023-02-11T23:35:23.173Z,103727.06
2023-02-11T23:37:50.774Z,103728.91
2023-02-11T23:40:18.386Z,103729.78
2023-02-11T23:42:45.736Z,103723.56
2023-02-11T23:45:12.301Z,103728.75
2023-02-11T23:47:39.740Z,103718.88
2023-02-11T23:50:07.816Z,103724.84
2023-02-11T23:52:34.453Z,103719.91
2023-02-11T23:55:01.005Z,103728.75
2023-02-11T23:57:27.567Z,103728.66
2023-02-11T23:59:54.114Z,103725.97
